sensor_id;sensor_type;location;lat;lon;timestamp;P1;durP1;ratioP1;P2;durP2;ratioP2
22070;SDS011;11200;51.488;6.668;2023-02-15T04:46:13;23.92;;;15.77;;
22070;SDS011;11200;51.488;6.668;2023-02-15T04:48:39;23.02;;;15.73;;
22070;SDS011;11200;51.488;6.668;2023-02-15T04:51:05;24.55;;;16.20;;
22070;SDS011;11200;51.488;6.668;2023-02-15T04:53:32;25.35;;;15.65;;
22070;SDS011;11200;51.488;6.668;2023-02-15T04:55:57;27.10;;;16.85;;
22070;SDS011;11200;51.488;6.668;2023-02-15T04:58:23;23.25;;;16.25;;
22070;SDS011;11200;51.488;6.668;2023-02-15T05:00:49;24.77;;;16.92;;
22070;SDS011;11200;51.488;6.668;2023-02-15T05:03:14;25.92;;;16.75;;
22070;SDS011;11200;51.488;6.668;2023-02-15T05:05:43;25.20;;;17.15;;
22070;SDS011;11200;51.488;6.668;2023-02-15T05:08:31;25.58;;;16.35;;
22070;SDS011;11200;51.488;6.668;2023-02-15T05:11:06;24.70;;;16.85;;
22070;SDS011;11200;51.488;6.668;2023-02-15T05:13:32;24.50;;;16.85;;
22070;SDS011;11200;51.488;6.668;2023-02-15T05:15:57;25.60;;;17.20;;
22070;SDS011;11200;51.488;6.668;2023-02-15T05:18:23;25.60;;;17.13;;
22070;SDS011;11200;51.488;6.668;2023-02-15T05:20:58;26.67;;;17.70;;
22070;SDS011;11200;51.488;6.668;2023-02-15T05:23:43;27.02;;;17.15;;
22070;SDS011;11200;51.488;6.668;2023-02-15T05:26:17;27.48;;;18.30;;
22070;SDS011;11200;51.488;6.668;2023-02-15T05:29:05;25.58;;;17.30;;
22070;SDS011;11200;51.488;6.668;2023-02-15T05:31:32;28.15;;;18.08;;
22070;SDS011;11200;51.488;6.668;2023-02-15T05:34:29;28.08;;;18.25;;
22070;SDS011;11200;51.488;6.668;2023-02-15T05:37:04;25.10;;;17.55;;
22070;SDS011;11200;51.488;6.668;2023-02-15T05:39:36;28.40;;;17.83;;
22070;SDS011;11200;51.488;6.668;2023-02-15T05:42:11;25.63;;;17.90;;
22070;SDS011;11200;51.488;6.668;2023-02-15T05:44:43;26.27;;;17.70;;
22070;SDS011;11200;51.488;6.668;2023-02-15T05:47:11;26.23;;;16.98;;
22070;SDS011;11200;51.488;6.668;2023-02-15T05:49:40;26.58;;;17.58;;
22070;SDS011;11200;51.488;6.668;2023-02-15T05:52:06;26.55;;;17.77;;
22070;SDS011;11200;51.488;6.668;2023-02-15T05:54:35;27.23;;;17.98;;
22070;SDS011;11200;51.488;6.668;2023-02-15T05:57:01;26.88;;;17.25;;
22070;SDS011;11200;51.488;6.668;2023-02-15T05:59:27;26.55;;;17.52;;
22070;SDS011;11200;51.488;6.668;2023-02-15T06:01:53;26.00;;;17.20;;
22070;SDS011;11200;51.488;6.668;2023-02-15T06:04:19;26.25;;;16.98;;
22070;SDS011;11200;51.488;6.668;2023-02-15T06:06:44;23.83;;;16.05;;
22070;SDS011;11200;51.488;6.668;2023-02-15T06:09:11;25.08;;;17.00;;
22070;SDS011;11200;51.488;6.668;2023-02-15T06:11:37;26.40;;;17.73;;
22070;SDS011;11200;51.488;6.668;2023-02-15T06:14:03;26.33;;;16.90;;
22070;SDS011;11200;51.488;6.668;2023-02-15T06:16:29;26.55;;;17.42;;
22070;SDS011;11200;51.488;6.668;2023-02-15T06:18:55;28.27;;;17.80;;
22070;SDS011;11200;51.488;6.668;2023-02-15T06:21:21;25.83;;;17.33;;
22070;SDS011;11200;51.488;6.668;2023-02-15T06:23:47;29.25;;;18.20;;
22070;SDS011;11200;51.488;6.668;2023-02-15T06:26:12;26.58;;;17.52;;
22070;SDS011;11200;51.488;6.668;2023-02-15T06:28:38;27.67;;;18.25;;
22070;SDS011;11200;51.488;6.668;2023-02-15T06:31:06;27.50;;;17.70;;
22070;SDS011;11200;51.488;6.668;2023-02-15T06:33:31;26.98;;;17.33;;
22070;SDS011;11200;51.488;6.668;2023-02-15T06:35:58;26.15;;;17.55;;
22070;SDS011;11200;51.488;6.668;2023-02-15T06:38:24;27.38;;;18.10;;
22070;SDS011;11200;51.488;6.668;2023-02-15T06:40:50;28.75;;;17.30;;
22070;SDS011;11200;51.488;6.668;2023-02-15T06:43:16;25.80;;;17.02;;
22070;SDS011;11200;51.488;6.668;2023-02-15T06:45:41;26.77;;;17.20;;
22070;SDS011;11200;51.488;6.668;2023-02-15T06:48:07;28.92;;;17.77;;
22070;SDS011;11200;51.488;6.668;2023-02-15T06:50:33;26.17;;;17.38;;
22070;SDS011;11200;51.488;6.668;2023-02-15T06:52:59;24.75;;;16.63;;
22070;SDS011;11200;51.488;6.668;2023-02-15T06:55:25;27.33;;;17.60;;
22070;SDS011;11200;51.488;6.668;2023-02-15T06:57:51;27.05;;;17.52;;
22070;SDS011;11200;51.488;6.668;2023-02-15T07:00:17;26.48;;;17.15;;
22070;SDS011;11200;51.488;6.668;2023-02-15T07:02:43;29.35;;;17.90;;
22070;SDS011;11200;51.488;6.668;2023-02-15T07:05:09;29.92;;;18.50;;
22070;SDS011;11200;51.488;6.668;2023-02-15T07:07:35;28.15;;;17.67;;
22070;SDS011;11200;51.488;6.668;2023-02-15T07:10:01;29.38;;;19.08;;
22070;SDS011;11200;51.488;6.668;2023-02-15T07:12:26;27.73;;;18.05;;
22070;SDS011;11200;51.488;6.668;2023-02-15T07:15:08;26.65;;;17.35;;
22070;SDS011;11200;51.488;6.668;2023-02-15T07:17:35;28.27;;;18.30;;
22070;SDS011;11200;51.488;6.668;2023-02-15T07:20:05;31.73;;;19.13;;
22070;SDS011;11200;51.488;6.668;2023-02-15T07:22:42;28.10;;;18.17;;
22070;SDS011;11200;51.488;6.668;2023-02-15T07:25:08;31.50;;;19.80;;
22070;SDS011;11200;51.488;6.668;2023-02-15T07:27:35;30.35;;;18.92;;
22070;SDS011;11200;51.488;6.668;2023-02-15T07:30:01;26.88;;;17.88;;
22070;SDS011;11200;51.488;6.668;2023-02-15T07:32:30;28.75;;;18.50;;
22070;SDS011;11200;51.488;6.668;2023-02-15T07:34:56;31.27;;;20.30;;
22070;SDS011;11200;51.488;6.668;2023-02-15T07:37:23;31.25;;;19.55;;
22070;SDS011;11200;51.488;6.668;2023-02-15T07:43:00;32.50;;;20.50;;
22070;SDS011;11200;51.488;6.668;2023-02-15T07:45:26;28.98;;;19.63;;
22070;SDS011;11200;51.488;6.668;2023-02-15T07:47:52;32.13;;;20.45;;
22070;SDS011;11200;51.488;6.668;2023-02-15T07:50:17;31.27;;;21.20;;
22070;SDS011;11200;51.488;6.668;2023-02-15T07:52:43;33.58;;;21.92;;
22070;SDS011;11200;51.488;6.668;2023-02-15T07:55:09;33.13;;;21.67;;
22070;SDS011;11200;51.488;6.668;2023-02-15T07:57:37;31.38;;;20.67;;
22070;SDS011;11200;51.488;6.668;2023-02-15T08:00:08;35.08;;;20.98;;
22070;SDS011;11200;51.488;6.668;2023-02-15T08:02:34;30.65;;;20.23;;
22070;SDS011;11200;51.488;6.668;2023-02-15T08:05:01;32.60;;;20.67;;
22070;SDS011;11200;51.488;6.668;2023-02-15T08:07:27;33.33;;;21.05;;
22070;SDS011;11200;51.488;6.668;2023-02-15T08:09:53;29.50;;;20.05;;
22070;SDS011;11200;51.488;6.668;2023-02-15T08:12:19;30.70;;;20.08;;
22070;SDS011;11200;51.488;6.668;2023-02-15T08:14:44;31.25;;;21.02;;
22070;SDS011;11200;51.488;6.668;2023-02-15T08:17:10;31.45;;;20.42;;
22070;SDS011;11200;51.488;6.668;2023-02-15T08:19:36;31.23;;;20.35;;
22070;SDS011;11200;51.488;6.668;2023-02-15T08:22:03;32.35;;;20.58;;
22070;SDS011;11200;51.488;6.668;2023-02-15T08:24:31;32.72;;;20.98;;
22070;SDS011;11200;51.488;6.668;2023-02-15T08:27:08;32.53;;;21.60;;
22070;SDS011;11200;51.488;6.668;2023-02-15T08:29:35;33.13;;;21.27;;
22070;SDS011;11200;51.488;6.668;2023-02-15T08:32:06;30.77;;;20.17;;
22070;SDS011;11200;51.488;6.668;2023-02-15T08:34:35;33.45;;;21.35;;
22070;SDS011;11200;51.488;6.668;2023-02-15T08:37:03;33.45;;;21.35;;
22070;SDS011;11200;51.488;6.668;2023-02-15T08:39:28;35.80;;;21.60;;
22070;SDS011;11200;51.488;6.668;2023-02-15T08:41:54;34.60;;;21.13;;
22070;SDS011;11200;51.488;6.668;2023-02-15T08:44:20;33.90;;;21.17;;
22070;SDS011;11200;51.488;6.668;2023-02-15T08:46:46;34.20;;;21.48;;
22070;SDS011;11200;51.488;6.668;2023-02-15T08:49:15;34.05;;;21.58;;
22070;SDS011;11200;51.488;6.668;2023-02-15T08:51:43;37.97;;;22.05;;
22070;SDS011;11200;51.488;6.668;2023-02-15T08:54:15;37.72;;;23.48;;
22070;SDS011;11200;51.488;6.668;2023-02-15T08:56:42;35.33;;;22.48;;
22070;SDS011;11200;51.488;6.668;2023-02-15T08:59:14;40.95;;;23.02;;
22070;SDS011;11200;51.488;6.668;2023-02-15T09:01:51;36.13;;;22.42;;
22070;SDS011;11200;51.488;6.668;2023-02-15T09:04:18;39.45;;;23.48;;
22070;SDS011;11200;51.488;6.668;2023-02-15T09:06:45;37.03;;;23.23;;
22070;SDS011;11200;51.488;6.668;2023-02-15T09:09:12;34.05;;;22.23;;
22070;SDS011;11200;51.488;6.668;2023-02-15T09:11:42;34.08;;;23.52;;
22070;SDS011;11200;51.488;6.668;2023-02-15T09:14:10;32.90;;;22.33;;
22070;SDS011;11200;51.488;6.668;2023-02-15T09:16:38;34.55;;;22.02;;
22070;SDS011;11200;51.488;6.668;2023-02-15T09:19:05;34.72;;;23.02;;
22070;SDS011;11200;51.488;6.668;2023-02-15T09:21:31;35.75;;;23.50;;
22070;SDS011;11200;51.488;6.668;2023-02-15T09:23:59;34.70;;;23.20;;
22070;SDS011;11200;51.488;6.668;2023-02-15T09:26:29;34.03;;;22.90;;
22070;SDS011;11200;51.488;6.668;2023-02-15T09:28:57;34.92;;;23.25;;
22070;SDS011;11200;51.488;6.668;2023-02-15T09:31:30;34.45;;;22.23;;
22070;SDS011;11200;51.488;6.668;2023-02-15T09:33:58;35.10;;;24.05;;
22070;SDS011;11200;51.488;6.668;2023-02-15T09:36:28;35.35;;;23.80;;
22070;SDS011;11200;51.488;6.668;2023-02-15T09:39:18;32.15;;;22.17;;
22070;SDS011;11200;51.488;6.668;2023-02-15T09:41:59;35.53;;;23.38;;
22070;SDS011;11200;51.488;6.668;2023-02-15T09:52:56;32.92;;;21.73;;
22070;SDS011;11200;51.488;6.668;2023-02-15T10:06:28;35.00;;;22.55;;
22070;SDS011;11200;51.488;6.668;2023-02-15T10:23:07;31.85;;;22.20;;
22070;SDS011;11200;51.488;6.668;2023-02-15T10:25:37;32.53;;;22.10;;
22070;SDS011;11200;51.488;6.668;2023-02-15T10:28:08;33.63;;;22.08;;
22070;SDS011;11200;51.488;6.668;2023-02-15T10:30:48;31.42;;;21.00;;
22070;SDS011;11200;51.488;6.668;2023-02-15T10:38:49;28.48;;;19.73;;
22070;SDS011;11200;51.488;6.668;2023-02-15T10:49:58;25.88;;;18.75;;
22070;SDS011;11200;51.488;6.668;2023-02-15T10:52:40;24.17;;;18.67;;
22070;SDS011;11200;51.488;6.668;2023-02-15T10:58:06;23.27;;;17.38;;
22070;SDS011;11200;51.488;6.668;2023-02-15T11:04:06;24.05;;;17.40;;
22070;SDS011;11200;51.488;6.668;2023-02-15T11:06:37;21.63;;;16.58;;
22070;SDS011;11200;51.488;6.668;2023-02-15T11:09:09;22.70;;;16.30;;
22070;SDS011;11200;51.488;6.668;2023-02-15T11:11:38;22.92;;;16.90;;
22070;SDS011;11200;51.488;6.668;2023-02-15T11:14:14;21.60;;;16.35;;
22070;SDS011;11200;51.488;6.668;2023-02-15T11:16:42;18.90;;;15.77;;
22070;SDS011;11200;51.488;6.668;2023-02-15T11:19:11;22.20;;;15.80;;
22070;SDS011;11200;51.488;6.668;2023-02-15T11:21:39;20.25;;;15.32;;
22070;SDS011;11200;51.488;6.668;2023-02-15T11:24:13;20.50;;;15.60;;
22070;SDS011;11200;51.488;6.668;2023-02-15T11:26:57;18.67;;;15.18;;
22070;SDS011;11200;51.488;6.668;2023-02-15T11:29:31;18.50;;;14.85;;
22070;SDS011;11200;51.488;6.668;2023-02-15T11:34:59;20.40;;;13.95;;
22070;SDS011;11200;51.488;6.668;2023-02-15T11:37:40;17.10;;;14.13;;
22070;SDS011;11200;51.488;6.668;2023-02-15T11:42:56;16.63;;;13.43;;
22070;SDS011;11200;51.488;6.668;2023-02-15T11:45:31;17.65;;;13.30;;
22070;SDS011;11200;51.488;6.668;2023-02-15T11:47:59;15.60;;;13.27;;
22070;SDS011;11200;51.488;6.668;2023-02-15T11:50:27;17.63;;;13.00;;
22070;SDS011;11200;51.488;6.668;2023-02-15T11:55:58;15.50;;;12.70;;
22070;SDS011;11200;51.488;6.668;2023-02-15T12:01:08;14.85;;;12.00;;
22070;SDS011;11200;51.488;6.668;2023-02-15T12:06:16;16.42;;;12.60;;
22070;SDS011;11200;51.488;6.668;2023-02-15T12:08:52;14.68;;;11.88;;
22070;SDS011;11200;51.488;6.668;2023-02-15T12:11:29;13.38;;;11.13;;
22070;SDS011;11200;51.488;6.668;2023-02-15T12:14:01;13.70;;;11.02;;
22070;SDS011;11200;51.488;6.668;2023-02-15T12:16:31;12.88;;;10.95;;
22070;SDS011;11200;51.488;6.668;2023-02-15T12:21:48;13.60;;;10.68;;
22070;SDS011;11200;51.488;6.668;2023-02-15T12:24:49;13.55;;;10.57;;
22070;SDS011;11200;51.488;6.668;2023-02-15T12:29:51;12.50;;;11.02;;
22070;SDS011;11200;51.488;6.668;2023-02-15T12:32:24;13.88;;;10.55;;
22070;SDS011;11200;51.488;6.668;2023-02-15T12:34:54;14.82;;;10.60;;
22070;SDS011;11200;51.488;6.668;2023-02-15T12:37:29;13.35;;;10.20;;
22070;SDS011;11200;51.488;6.668;2023-02-15T12:39:58;13.70;;;9.88;;
22070;SDS011;11200;51.488;6.668;2023-02-15T12:42:25;11.98;;;10.48;;
22070;SDS011;11200;51.488;6.668;2023-02-15T12:44:55;13.23;;;9.45;;
22070;SDS011;11200;51.488;6.668;2023-02-15T12:47:23;13.57;;;10.20;;
22070;SDS011;11200;51.488;6.668;2023-02-15T12:52:47;12.90;;;10.15;;
22070;SDS011;11200;51.488;6.668;2023-02-15T12:55:19;13.15;;;10.10;;
22070;SDS011;11200;51.488;6.668;2023-02-15T12:57:47;12.73;;;9.85;;
22070;SDS011;11200;51.488;6.668;2023-02-15T13:08:19;14.30;;;10.85;;
22070;SDS011;11200;51.488;6.668;2023-02-15T13:13:22;14.77;;;11.93;;
22070;SDS011;11200;51.488;6.668;2023-02-15T13:19:07;13.85;;;10.63;;
22070;SDS011;11200;51.488;6.668;2023-02-15T13:21:41;15.43;;;11.43;;
22070;SDS011;11200;51.488;6.668;2023-02-15T13:26:44;15.70;;;11.88;;
22070;SDS011;11200;51.488;6.668;2023-02-15T13:29:15;16.65;;;12.57;;
22070;SDS011;11200;51.488;6.668;2023-02-15T13:31:46;15.98;;;11.35;;
22070;SDS011;11200;51.488;6.668;2023-02-15T13:34:34;14.95;;;11.73;;
22070;SDS011;11200;51.488;6.668;2023-02-15T13:37:13;17.38;;;12.13;;
22070;SDS011;11200;51.488;6.668;2023-02-15T13:42:34;15.23;;;11.50;;
22070;SDS011;11200;51.488;6.668;2023-02-15T13:54:06;17.02;;;11.85;;
22070;SDS011;11200;51.488;6.668;2023-02-15T13:57:00;15.27;;;11.30;;
22070;SDS011;11200;51.488;6.668;2023-02-15T14:05:45;18.23;;;13.40;;
22070;SDS011;11200;51.488;6.668;2023-02-15T14:08:38;16.38;;;12.23;;
22070;SDS011;11200;51.488;6.668;2023-02-15T14:11:13;16.83;;;12.07;;
22070;SDS011;11200;51.488;6.668;2023-02-15T14:19:44;17.38;;;12.05;;
22070;SDS011;11200;51.488;6.668;2023-02-15T14:30:23;19.20;;;12.55;;
22070;SDS011;11200;51.488;6.668;2023-02-15T14:32:52;17.23;;;12.80;;
22070;SDS011;11200;51.488;6.668;2023-02-15T14:35:24;17.15;;;12.80;;
22070;SDS011;11200;51.488;6.668;2023-02-15T14:41:07;17.75;;;12.88;;
22070;SDS011;11200;51.488;6.668;2023-02-15T14:49:17;16.90;;;11.93;;
22070;SDS011;11200;51.488;6.668;2023-02-15T15:02:15;19.00;;;13.38;;
22070;SDS011;11200;51.488;6.668;2023-02-15T15:07:50;18.60;;;13.15;;
22070;SDS011;11200;51.488;6.668;2023-02-15T15:15:13;18.48;;;12.73;;
22070;SDS011;11200;51.488;6.668;2023-02-15T15:23:49;18.58;;;12.32;;
22070;SDS011;11200;51.488;6.668;2023-02-15T15:26:23;17.85;;;12.02;;
22070;SDS011;11200;51.488;6.668;2023-02-15T15:31:18;18.50;;;11.85;;
22070;SDS011;11200;51.488;6.668;2023-02-15T15:34:09;18.02;;;12.20;;
22070;SDS011;11200;51.488;6.668;2023-02-15T15:39:56;18.75;;;12.60;;
22070;SDS011;11200;51.488;6.668;2023-02-15T15:46:07;16.90;;;11.52;;
22070;SDS011;11200;51.488;6.668;2023-02-15T15:49:10;17.92;;;11.70;;
22070;SDS011;11200;51.488;6.668;2023-02-15T15:51:44;16.80;;;11.63;;
22070;SDS011;11200;51.488;6.668;2023-02-15T15:54:18;14.23;;;10.70;;
22070;SDS011;11200;51.488;6.668;2023-02-15T15:57:00;16.20;;;11.30;;
22070;SDS011;11200;51.488;6.668;2023-02-15T15:59:32;14.77;;;10.90;;
22070;SDS011;11200;51.488;6.668;2023-02-15T16:02:06;14.93;;;10.43;;
22070;SDS011;11200;51.488;6.668;2023-02-15T16:04:35;17.98;;;10.73;;
22070;SDS011;11200;51.488;6.668;2023-02-15T16:12:29;14.13;;;10.63;;
22070;SDS011;11200;51.488;6.668;2023-02-15T16:14:58;14.13;;;10.15;;
22070;SDS011;11200;51.488;6.668;2023-02-15T16:17:40;15.07;;;11.30;;
22070;SDS011;11200;51.488;6.668;2023-02-15T16:20:21;14.82;;;10.45;;
22070;SDS011;11200;51.488;6.668;2023-02-15T16:22:47;13.85;;;10.73;;
22070;SDS011;11200;51.488;6.668;2023-02-15T16:28:07;11.65;;;9.75;;
22070;SDS011;11200;51.488;6.668;2023-02-15T16:30:36;14.82;;;9.85;;
22070;SDS011;11200;51.488;6.668;2023-02-15T16:35:33;13.50;;;9.70;;
22070;SDS011;11200;51.488;6.668;2023-02-15T16:38:00;13.93;;;9.93;;
22070;SDS011;11200;51.488;6.668;2023-02-15T16:40:27;12.32;;;9.82;;
22070;SDS011;11200;51.488;6.668;2023-02-15T16:43:19;12.60;;;9.77;;
22070;SDS011;11200;51.488;6.668;2023-02-15T16:45:49;12.05;;;9.52;;
22070;SDS011;11200;51.488;6.668;2023-02-15T16:48:21;13.15;;;10.07;;
22070;SDS011;11200;51.488;6.668;2023-02-15T16:50:50;16.33;;;10.20;;
22070;SDS011;11200;51.488;6.668;2023-02-15T16:53:20;14.30;;;10.20;;
22070;SDS011;11200;51.488;6.668;2023-02-15T16:55:50;13.55;;;10.48;;
22070;SDS011;11200;51.488;6.668;2023-02-15T16:58:19;12.45;;;9.95;;
22070;SDS011;11200;51.488;6.668;2023-02-15T17:00:51;14.02;;;9.98;;
22070;SDS011;11200;51.488;6.668;2023-02-15T17:03:26;13.18;;;10.40;;
22070;SDS011;11200;51.488;6.668;2023-02-15T17:05:56;12.77;;;10.25;;
22070;SDS011;11200;51.488;6.668;2023-02-15T17:08:25;16.33;;;11.10;;
22070;SDS011;11200;51.488;6.668;2023-02-15T17:11:12;14.15;;;10.82;;
22070;SDS011;11200;51.488;6.668;2023-02-15T17:19:13;12.98;;;10.40;;
22070;SDS011;11200;51.488;6.668;2023-02-15T17:21:56;12.65;;;10.02;;
22070;SDS011;11200;51.488;6.668;2023-02-15T17:27:03;13.05;;;10.10;;
22070;SDS011;11200;51.488;6.668;2023-02-15T17:29:36;13.48;;;10.20;;
22070;SDS011;11200;51.488;6.668;2023-02-15T17:32:05;12.43;;;10.52;;
22070;SDS011;11200;51.488;6.668;2023-02-15T17:34:49;14.10;;;10.75;;
22070;SDS011;11200;51.488;6.668;2023-02-15T17:37:32;13.52;;;10.85;;
22070;SDS011;11200;51.488;6.668;2023-02-15T17:42:50;13.35;;;10.60;;
22070;SDS011;11200;51.488;6.668;2023-02-15T17:45:17;14.10;;;10.20;;
22070;SDS011;11200;51.488;6.668;2023-02-15T17:47:43;11.95;;;10.10;;
22070;SDS011;11200;51.488;6.668;2023-02-15T17:50:21;12.90;;;9.90;;
22070;SDS011;11200;51.488;6.668;2023-02-15T17:52:50;12.57;;;9.90;;
22070;SDS011;11200;51.488;6.668;2023-02-15T17:55:18;13.32;;;10.52;;
22070;SDS011;11200;51.488;6.668;2023-02-15T17:58:05;13.90;;;10.48;;
22070;SDS011;11200;51.488;6.668;2023-02-15T18:00:34;14.80;;;11.07;;
22070;SDS011;11200;51.488;6.668;2023-02-15T18:03:20;13.68;;;10.80;;
22070;SDS011;11200;51.488;6.668;2023-02-15T18:06:05;13.27;;;10.55;;
22070;SDS011;11200;51.488;6.668;2023-02-15T18:08:49;13.55;;;10.50;;
22070;SDS011;11200;51.488;6.668;2023-02-15T18:11:33;16.30;;;10.82;;
22070;SDS011;11200;51.488;6.668;2023-02-15T18:14:02;13.65;;;10.05;;
22070;SDS011;11200;51.488;6.668;2023-02-15T18:16:33;13.43;;;10.30;;
22070;SDS011;11200;51.488;6.668;2023-02-15T18:19:02;14.25;;;10.70;;
22070;SDS011;11200;51.488;6.668;2023-02-15T18:21:29;12.07;;;9.55;;
22070;SDS011;11200;51.488;6.668;2023-02-15T18:23:56;13.63;;;10.35;;
22070;SDS011;11200;51.488;6.668;2023-02-15T18:26:22;12.85;;;10.40;;
22070;SDS011;11200;51.488;6.668;2023-02-15T18:28:52;12.60;;;10.40;;
22070;SDS011;11200;51.488;6.668;2023-02-15T18:31:18;13.98;;;10.45;;
22070;SDS011;11200;51.488;6.668;2023-02-15T18:33:51;14.27;;;10.65;;
22070;SDS011;11200;51.488;6.668;2023-02-15T18:36:21;12.48;;;10.40;;
22070;SDS011;11200;51.488;6.668;2023-02-15T18:38:53;14.10;;;10.70;;
22070;SDS011;11200;51.488;6.668;2023-02-15T18:41:20;14.20;;;10.50;;
22070;SDS011;11200;51.488;6.668;2023-02-15T18:43:46;13.52;;;10.32;;
22070;SDS011;11200;51.488;6.668;2023-02-15T18:46:13;13.57;;;10.20;;
22070;SDS011;11200;51.488;6.668;2023-02-15T18:48:40;13.15;;;9.93;;
22070;SDS011;11200;51.488;6.668;2023-02-15T18:51:12;12.90;;;10.27;;
22070;SDS011;11200;51.488;6.668;2023-02-15T18:53:49;14.07;;;10.50;;
22070;SDS011;11200;51.488;6.668;2023-02-15T18:56:17;14.13;;;10.95;;
22070;SDS011;11200;51.488;6.668;2023-02-15T18:58:45;14.65;;;10.82;;
22070;SDS011;11200;51.488;6.668;2023-02-15T19:01:12;13.43;;;10.65;;
22070;SDS011;11200;51.488;6.668;2023-02-15T19:03:43;13.07;;;10.80;;
22070;SDS011;11200;51.488;6.668;2023-02-15T19:06:16;13.15;;;10.80;;
22070;SDS011;11200;51.488;6.668;2023-02-15T19:08:44;12.10;;;9.90;;
22070;SDS011;11200;51.488;6.668;2023-02-15T19:11:21;13.38;;;10.80;;
22070;SDS011;11200;51.488;6.668;2023-02-15T19:13:49;13.38;;;10.85;;
22070;SDS011;11200;51.488;6.668;2023-02-15T19:16:20;13.77;;;10.75;;
22070;SDS011;11200;51.488;6.668;2023-02-15T19:18:54;14.15;;;10.35;;
22070;SDS011;11200;51.488;6.668;2023-02-15T19:21:21;13.70;;;10.43;;
22070;SDS011;11200;51.488;6.668;2023-02-15T19:24:11;12.95;;;10.55;;
22070;SDS011;11200;51.488;6.668;2023-02-15T19:26:39;13.65;;;10.48;;
22070;SDS011;11200;51.488;6.668;2023-02-15T19:29:06;14.48;;;10.45;;
22070;SDS011;11200;51.488;6.668;2023-02-15T19:31:34;13.43;;;11.00;;
22070;SDS011;11200;51.488;6.668;2023-02-15T19:34:00;15.07;;;11.27;;
22070;SDS011;11200;51.488;6.668;2023-02-15T19:36:25;13.30;;;10.32;;
22070;SDS011;11200;51.488;6.668;2023-02-15T19:38:52;12.82;;;10.57;;
22070;SDS011;11200;51.488;6.668;2023-02-15T19:41:22;14.50;;;10.98;;
22070;SDS011;11200;51.488;6.668;2023-02-15T19:43:53;12.63;;;10.05;;
22070;SDS011;11200;51.488;6.668;2023-02-15T19:46:21;15.60;;;10.68;;
22070;SDS011;11200;51.488;6.668;2023-02-15T19:48:51;15.60;;;10.98;;
22070;SDS011;11200;51.488;6.668;2023-02-15T19:51:17;13.85;;;11.07;;
22070;SDS011;11200;51.488;6.668;2023-02-15T19:53:51;12.52;;;10.50;;
22070;SDS011;11200;51.488;6.668;2023-02-15T19:56:19;15.88;;;11.55;;
22070;SDS011;11200;51.488;6.668;2023-02-15T19:58:49;15.20;;;10.98;;
22070;SDS011;11200;51.488;6.668;2023-02-15T20:01:16;13.60;;;11.00;;
22070;SDS011;11200;51.488;6.668;2023-02-15T20:03:42;14.82;;;10.80;;
22070;SDS011;11200;51.488;6.668;2023-02-15T20:06:12;14.15;;;11.02;;
22070;SDS011;11200;51.488;6.668;2023-02-15T20:08:39;15.20;;;10.98;;
22070;SDS011;11200;51.488;6.668;2023-02-15T20:11:09;14.77;;;11.50;;
22070;SDS011;11200;51.488;6.668;2023-02-15T20:13:37;13.35;;;11.18;;
22070;SDS011;11200;51.488;6.668;2023-02-15T20:16:03;15.30;;;11.57;;
22070;SDS011;11200;51.488;6.668;2023-02-15T20:18:37;15.20;;;11.45;;
22070;SDS011;11200;51.488;6.668;2023-02-15T20:21:03;13.40;;;11.02;;
22070;SDS011;11200;51.488;6.668;2023-02-15T20:23:35;15.27;;;11.30;;
22070;SDS011;11200;51.488;6.668;2023-02-15T20:26:06;15.57;;;11.65;;
22070;SDS011;11200;51.488;6.668;2023-02-15T20:28:38;15.63;;;11.27;;
22070;SDS011;11200;51.488;6.668;2023-02-15T20:31:03;14.70;;;11.57;;
22070;SDS011;11200;51.488;6.668;2023-02-15T20:33:29;15.38;;;12.00;;
22070;SDS011;11200;51.488;6.668;2023-02-15T20:35:54;14.57;;;11.82;;
22070;SDS011;11200;51.488;6.668;2023-02-15T20:38:21;15.70;;;12.18;;
22070;SDS011;11200;51.488;6.668;2023-02-15T20:40:50;15.85;;;11.95;;
22070;SDS011;11200;51.488;6.668;2023-02-15T20:43:35;14.93;;;11.70;;
22070;SDS011;11200;51.488;6.668;2023-02-15T20:46:01;15.73;;;11.52;;
22070;SDS011;11200;51.488;6.668;2023-02-15T20:48:27;17.02;;;12.18;;
22070;SDS011;11200;51.488;6.668;2023-02-15T20:50:53;14.90;;;11.68;;
22070;SDS011;11200;51.488;6.668;2023-02-15T20:53:22;16.45;;;12.38;;
22070;SDS011;11200;51.488;6.668;2023-02-15T20:55:54;14.25;;;11.40;;
22070;SDS011;11200;51.488;6.668;2023-02-15T20:58:21;16.42;;;11.68;;
22070;SDS011;11200;51.488;6.668;2023-02-15T21:00:52;15.95;;;12.25;;
22070;SDS011;11200;51.488;6.668;2023-02-15T21:03:24;14.88;;;12.00;;
22070;SDS011;11200;51.488;6.668;2023-02-15T21:05:54;15.73;;;12.35;;
22070;SDS011;11200;51.488;6.668;2023-02-15T21:08:21;17.20;;;12.23;;
22070;SDS011;11200;51.488;6.668;2023-02-15T21:10:48;15.68;;;12.32;;
22070;SDS011;11200;51.488;6.668;2023-02-15T21:15:54;15.63;;;12.27;;
22070;SDS011;11200;51.488;6.668;2023-02-15T21:18:21;17.10;;;13.50;;
22070;SDS011;11200;51.488;6.668;2023-02-15T21:20:48;17.45;;;13.15;;
22070;SDS011;11200;51.488;6.668;2023-02-15T21:23:17;17.92;;;13.13;;
22070;SDS011;11200;51.488;6.668;2023-02-15T21:25:44;18.92;;;14.32;;
22070;SDS011;11200;51.488;6.668;2023-02-15T21:28:24;18.58;;;13.18;;
22070;SDS011;11200;51.488;6.668;2023-02-15T21:30:51;15.88;;;13.10;;
22070;SDS011;11200;51.488;6.668;2023-02-15T21:33:17;18.02;;;13.48;;
22070;SDS011;11200;51.488;6.668;2023-02-15T21:35:45;17.95;;;13.43;;
22070;SDS011;11200;51.488;6.668;2023-02-15T21:38:14;17.17;;;13.40;;
22070;SDS011;11200;51.488;6.668;2023-02-15T21:40:42;18.48;;;12.65;;
22070;SDS011;11200;51.488;6.668;2023-02-15T21:43:15;16.15;;;12.43;;
22070;SDS011;11200;51.488;6.668;2023-02-15T21:46:08;18.15;;;13.15;;
22070;SDS011;11200;51.488;6.668;2023-02-15T21:48:56;17.58;;;13.60;;
22070;SDS011;11200;51.488;6.668;2023-02-15T21:51:22;18.40;;;14.15;;
22070;SDS011;11200;51.488;6.668;2023-02-15T21:54:08;18.73;;;13.18;;
22070;SDS011;11200;51.488;6.668;2023-02-15T21:56:39;18.77;;;14.07;;
22070;SDS011;11200;51.488;6.668;2023-02-15T21:59:09;17.67;;;13.10;;
22070;SDS011;11200;51.488;6.668;2023-02-15T22:01:43;18.77;;;13.07;;
22070;SDS011;11200;51.488;6.668;2023-02-15T22:04:13;18.10;;;12.52;;
22070;SDS011;11200;51.488;6.668;2023-02-15T22:06:45;15.88;;;12.40;;
22070;SDS011;11200;51.488;6.668;2023-02-15T22:09:14;17.95;;;13.68;;
22070;SDS011;11200;51.488;6.668;2023-02-15T22:11:42;17.50;;;12.95;;
22070;SDS011;11200;51.488;6.668;2023-02-15T22:17:08;15.82;;;12.20;;
22070;SDS011;11200;51.488;6.668;2023-02-15T22:19:39;15.88;;;12.18;;
22070;SDS011;11200;51.488;6.668;2023-02-15T22:22:05;17.88;;;12.55;;
22070;SDS011;11200;51.488;6.668;2023-02-15T22:24:30;16.90;;;12.63;;
22070;SDS011;11200;51.488;6.668;2023-02-15T22:26:56;16.77;;;12.70;;
22070;SDS011;11200;51.488;6.668;2023-02-15T22:29:21;18.15;;;13.23;;
22070;SDS011;11200;51.488;6.668;2023-02-15T22:31:47;18.73;;;12.90;;
22070;SDS011;11200;51.488;6.668;2023-02-15T22:34:29;16.08;;;12.52;;
22070;SDS011;11200;51.488;6.668;2023-02-15T22:36:56;19.63;;;13.05;;
22070;SDS011;11200;51.488;6.668;2023-02-15T22:39:23;17.88;;;13.18;;
22070;SDS011;11200;51.488;6.668;2023-02-15T22:41:52;17.95;;;13.05;;
22070;SDS011;11200;51.488;6.668;2023-02-15T22:44:22;16.83;;;12.57;;